createdAt,value
2023-05-06T00:00:43.102Z,248.05
2023-05-06T00:01:43.124Z,247.86
2023-05-06T00:02:43.180Z,248.09
2023-05-06T00:03:43.306Z,248.43
2023-05-06T00:04:43.180Z,248.93
2023-05-06T00:05:43.110Z,247.49
2023-05-06T00:06:43.132Z,247.51
2023-05-06T00:07:43.137Z,250.00
2023-05-06T00:08:43.208Z,247.69
2023-05-06T00:09:43.161Z,246.12
2023-05-06T00:10:43.174Z,247.67
2023-05-06T00:11:43.178Z,246.80
2023-05-06T00:12:43.234Z,247.71
2023-05-06T00:13:43.213Z,247.93
2023-05-06T00:14:43.199Z,246.61
2023-05-06T00:15:43.218Z,246.13
2023-05-06T00:16:43.268Z,247.15
2023-05-06T00:17:43.327Z,248.69
2023-05-06T00:18:43.246Z,248.57
2023-05-06T00:19:43.259Z,248.56
2023-05-06T00:20:43.259Z,248.30
2023-05-06T00:21:43.262Z,247.77
2023-05-06T00:22:43.289Z,248.97
2023-05-06T00:23:43.289Z,247.18
2023-05-06T00:24:43.294Z,246.76
2023-05-06T00:25:43.300Z,246.39
2023-05-06T00:26:43.322Z,248.47
2023-05-06T00:27:43.340Z,248.78
2023-05-06T00:28:43.337Z,249.46
2023-05-06T00:29:43.347Z,248.90
2023-05-06T00:30:43.362Z,250.00
2023-05-06T00:31:43.424Z,246.64
2023-05-06T00:32:43.410Z,246.64
2023-05-06T00:33:43.444Z,247.47
2023-05-06T00:34:43.397Z,249.00
2023-05-06T00:35:43.406Z,248.21
2023-05-06T00:36:43.405Z,246.33
2023-05-06T00:37:43.426Z,249.65
2023-05-06T00:38:43.409Z,248.80
2023-05-06T00:39:43.422Z,249.53
2023-05-06T00:40:43.423Z,247.13
2023-05-06T00:41:43.430Z,247.76
2023-05-06T00:42:43.446Z,247.46
2023-05-06T00:43:43.430Z,247.20
2023-05-06T00:44:43.431Z,249.76
2023-05-06T00:45:43.510Z,248.15
2023-05-06T00:46:43.469Z,249.48
2023-05-06T00:47:43.537Z,249.36
2023-05-06T00:48:43.479Z,245.84
2023-05-06T00:49:43.497Z,247.02
2023-05-06T00:50:43.515Z,248.54
2023-05-06T00:51:43.512Z,246.89
2023-05-06T00:52:43.541Z,245.50
2023-05-06T00:53:43.577Z,247.66
2023-05-06T00:54:43.542Z,246.85
2023-05-06T00:55:43.566Z,247.20
2023-05-06T00:56:43.578Z,247.16
2023-05-06T00:57:43.576Z,247.11
2023-05-06T00:58:43.612Z,247.74
2023-05-06T00:59:43.578Z,248.01
2023-05-06T01:00:43.616Z,246.80
2023-05-06T01:01:43.614Z,245.00
2023-05-06T01:02:47.394Z,247.39
2023-05-06T01:03:43.750Z,247.55
2023-05-06T01:04:43.617Z,247.92
2023-05-06T01:05:43.711Z,247.58
2023-05-06T01:06:43.613Z,247.79
2023-05-06T01:07:43.646Z,248.71
2023-05-06T01:08:43.644Z,248.97
2023-05-06T01:09:43.665Z,247.36
2023-05-06T01:10:43.686Z,248.94
2023-05-06T01:11:43.674Z,246.81
2023-05-06T01:12:43.706Z,247.73
2023-05-06T01:13:43.684Z,248.36
2023-05-06T01:14:43.699Z,248.46
2023-05-06T01:15:43.725Z,248.66
2023-05-06T01:16:43.740Z,248.97
2023-05-06T01:17:43.771Z,249.55
2023-05-06T01:18:43.746Z,247.55
2023-05-06T01:19:43.760Z,247.21
2023-05-06T01:20:43.762Z,245.64
2023-05-06T01:21:43.829Z,247.48
2023-05-06T01:22:43.799Z,248.43
2023-05-06T01:23:43.805Z,246.29
2023-05-06T01:24:43.800Z,249.74
2023-05-06T01:25:43.809Z,247.23
2023-05-06T01:26:43.891Z,247.22
2023-05-06T01:27:43.836Z,246.68
2023-05-06T01:28:43.821Z,247.76
2023-05-06T01:29:43.887Z,247.89
2023-05-06T01:30:43.874Z,247.92
2023-05-06T01:31:43.850Z,248.66
2023-05-06T01:32:43.959Z,248.84
2023-05-06T01:33:43.874Z,247.36
2023-05-06T01:34:43.870Z,246.33
2023-05-06T01:35:43.923Z,246.24
2023-05-06T01:36:43.892Z,246.36
2023-05-06T01:37:43.973Z,246.45
2023-05-06T01:38:43.967Z,246.64
2023-05-06T01:39:43.912Z,247.72
2023-05-06T01:40:43.909Z,247.27
2023-05-06T01:41:43.937Z,249.50
2023-05-06T01:42:43.924Z,248.40
2023-05-06T01:43:43.915Z,245.86
2023-05-06T01:44:43.968Z,246.03
2023-05-06T01:45:43.954Z,246.42
2023-05-06T01:46:44.022Z,247.07
2023-05-06T01:47:44.004Z,247.51
2023-05-06T01:48:44.025Z,245.58
2023-05-06T01:49:43.990Z,247.63
2023-05-06T01:50:44.004Z,248.76
2023-05-06T01:51:44.041Z,246.44
2023-05-06T01:52:44.031Z,247.89
2023-05-06T01:53:44.124Z,246.55
2023-05-06T01:54:44.050Z,248.93
2023-05-06T01:55:44.079Z,248.57
2023-05-06T01:56:44.078Z,245.85
2023-05-06T01:57:44.102Z,244.83
2023-05-06T01:58:44.107Z,245.78
2023-05-06T01:59:44.119Z,246.76
2023-05-06T02:00:44.130Z,246.03
2023-05-06T02:01:44.169Z,245.19
2023-05-06T02:02:44.225Z,245.74
2023-05-06T02:03:44.258Z,247.66
2023-05-06T02:04:44.180Z,247.13
2023-05-06T02:05:44.191Z,241.84
2023-05-06T02:06:44.211Z,242.05
2023-05-06T02:07:44.222Z,242.57
2023-05-06T02:08:44.228Z,243.45
2023-05-06T02:09:44.293Z,244.25
2023-05-06T02:10:44.244Z,245.15
2023-05-06T02:11:44.259Z,244.19
2023-05-06T02:12:44.276Z,243.73
2023-05-06T02:13:44.269Z,245.14
2023-05-06T02:14:44.278Z,243.72
2023-05-06T02:15:44.328Z,244.44
2023-05-06T02:16:44.299Z,243.33
2023-05-06T02:17:44.341Z,245.59
2023-05-06T02:18:44.314Z,244.44
2023-05-06T02:19:44.326Z,242.63
2023-05-06T02:20:44.334Z,244.65
2023-05-06T02:21:44.355Z,242.27
2023-05-06T02:22:44.355Z,244.56
2023-05-06T02:23:44.364Z,244.23
2023-05-06T02:24:44.364Z,241.67
2023-05-06T02:25:44.403Z,242.95
2023-05-06T02:26:44.394Z,245.03
2023-05-06T02:27:44.385Z,241.99
2023-05-06T02:28:44.452Z,241.24
2023-05-06T02:29:44.468Z,244.85
2023-05-06T02:30:44.492Z,243.16
2023-05-06T02:31:44.612Z,242.55
2023-05-06T02:32:44.596Z,244.22
2023-05-06T02:33:44.618Z,242.68
2023-05-06T02:34:44.666Z,244.21
2023-05-06T02:35:44.695Z,241.18
2023-05-06T02:36:44.750Z,241.90
2023-05-06T02:37:44.774Z,240.65
2023-05-06T02:38:44.851Z,242.59
2023-05-06T02:39:44.891Z,242.36
2023-05-06T02:40:44.925Z,242.06
2023-05-06T02:41:45.038Z,242.57
2023-05-06T02:42:45.079Z,241.79
2023-05-06T02:43:45.062Z,242.23
2023-05-06T02:44:45.127Z,242.12
2023-05-06T02:45:45.154Z,243.16
2023-05-06T02:46:45.193Z,241.56
2023-05-06T02:47:45.300Z,243.25
2023-05-06T02:48:45.304Z,240.92
2023-05-06T02:49:45.326Z,242.34
2023-05-06T02:50:45.368Z,242.72
2023-05-06T02:51:45.401Z,243.14
2023-05-06T02:52:45.531Z,241.27
2023-05-06T02:53:45.518Z,241.54
2023-05-06T02:54:45.554Z,241.46
2023-05-06T02:55:45.671Z,240.30
2023-05-06T02:56:45.664Z,241.56
2023-05-06T02:57:45.775Z,241.57
2023-05-06T02:58:45.761Z,242.29
2023-05-06T02:59:45.772Z,242.42
2023-05-06T03:00:45.803Z,242.46
2023-05-06T03:01:45.807Z,242.57
2023-05-06T03:02:45.853Z,242.71
2023-05-06T03:03:45.850Z,242.43
2023-05-06T03:04:45.847Z,242.68
2023-05-06T03:05:45.851Z,242.54
2023-05-06T03:06:45.870Z,242.84
2023-05-06T03:07:45.882Z,243.71
2023-05-06T03:08:45.923Z,243.69
2023-05-06T03:09:45.915Z,244.76
2023-05-06T03:10:45.937Z,243.59
2023-05-06T03:11:45.957Z,244.50
2023-05-06T03:12:45.975Z,244.26
2023-05-06T03:13:46.110Z,243.13
2023-05-06T03:14:45.994Z,242.53
2023-05-06T03:15:46.003Z,244.20
2023-05-06T03:16:46.055Z,243.34
2023-05-06T03:17:46.071Z,243.25
2023-05-06T03:18:46.061Z,243.68
2023-05-06T03:19:46.103Z,242.78
2023-05-06T03:20:46.119Z,242.53
2023-05-06T03:21:46.190Z,241.58
2023-05-06T03:22:46.165Z,243.42
2023-05-06T03:23:46.213Z,239.42
2023-05-06T03:24:46.264Z,242.83
2023-05-06T03:25:46.315Z,240.84
2023-05-06T03:26:46.368Z,239.71
2023-05-06T03:27:46.414Z,240.55
2023-05-06T03:28:46.479Z,242.82
2023-05-06T03:29:46.586Z,241.53
2023-05-06T03:30:46.584Z,241.75
2023-05-06T03:31:46.709Z,242.68
2023-05-06T03:32:46.697Z,242.67
2023-05-06T03:33:46.775Z,242.77
2023-05-06T03:34:46.797Z,244.00
2023-05-06T03:35:46.843Z,242.92
2023-05-06T03:36:46.900Z,243.44
2023-05-06T03:37:46.948Z,242.12
2023-05-06T03:38:47.027Z,244.46
2023-05-06T03:39:47.097Z,243.55
2023-05-06T03:40:47.125Z,242.52
2023-05-06T03:41:47.166Z,242.77
2023-05-06T03:42:47.225Z,242.71
2023-05-06T03:43:47.286Z,244.31
2023-05-06T03:44:47.330Z,243.15
2023-05-06T03:45:47.622Z,243.74
2023-05-06T03:46:47.473Z,241.75
2023-05-06T03:47:48.303Z,242.65
2023-05-06T03:48:47.542Z,243.56
2023-05-06T03:49:47.592Z,242.27
2023-05-06T03:50:47.654Z,240.62
2023-05-06T03:51:47.700Z,241.28
2023-05-06T03:52:47.767Z,242.00
2023-05-06T03:53:47.837Z,243.23
2023-05-06T03:54:47.901Z,241.88
2023-05-06T03:55:47.935Z,241.22
2023-05-06T03:56:47.986Z,241.62
2023-05-06T03:57:48.052Z,241.44
2023-05-06T03:58:48.102Z,242.84
2023-05-06T03:59:48.154Z,245.33
2023-05-06T04:00:48.222Z,242.55
2023-05-06T04:01:48.506Z,242.15
2023-05-06T04:02:48.368Z,244.37
2023-05-06T04:03:48.421Z,243.32
2023-05-06T04:04:48.473Z,241.54
2023-05-06T04:05:48.512Z,243.85
2023-05-06T04:06:48.577Z,242.27
2023-05-06T04:07:48.624Z,241.31
2023-05-06T04:08:48.751Z,243.31
2023-05-06T04:09:48.744Z,240.78
2023-05-06T04:10:48.820Z,242.45
2023-05-06T04:11:48.861Z,244.32
2023-05-06T04:12:48.941Z,244.39
2023-05-06T04:13:48.915Z,244.39
2023-05-06T04:14:48.923Z,243.39
2023-05-06T04:15:48.957Z,244.62
2023-05-06T04:16:48.991Z,243.52
2023-05-06T04:17:49.105Z,244.03
2023-05-06T04:18:49.043Z,244.64
2023-05-06T04:19:49.012Z,242.10
2023-05-06T04:20:49.052Z,242.75
2023-05-06T04:21:49.047Z,243.34
2023-05-06T04:22:49.080Z,243.31
2023-05-06T04:23:49.088Z,243.90
2023-05-06T04:24:49.124Z,243.92
2023-05-06T04:25:49.139Z,244.02
2023-05-06T04:26:49.155Z,243.34
2023-05-06T04:27:49.187Z,242.27
2023-05-06T04:28:49.202Z,241.71
2023-05-06T04:29:49.232Z,242.88
2023-05-06T04:30:49.236Z,242.62
2023-05-06T04:31:49.310Z,242.78
2023-05-06T04:32:49.301Z,244.04
2023-05-06T04:33:49.396Z,243.82
2023-05-06T04:34:49.312Z,242.85
2023-05-06T04:35:49.311Z,240.54
2023-05-06T04:36:49.344Z,240.78
2023-05-06T04:37:49.372Z,240.78
2023-05-06T04:38:49.366Z,241.36
2023-05-06T04:39:49.385Z,242.30
2023-05-06T04:40:49.389Z,243.11
2023-05-06T04:41:49.402Z,245.41
2023-05-06T04:42:49.434Z,242.45
2023-05-06T04:43:49.431Z,244.50
2023-05-06T04:44:49.450Z,242.83
2023-05-06T04:45:49.675Z,241.92
2023-05-06T04:46:49.487Z,241.64
2023-05-06T04:47:49.589Z,242.93
2023-05-06T04:48:49.506Z,241.53
2023-05-06T04:49:49.571Z,241.15
2023-05-06T04:50:49.522Z,241.16
2023-05-06T04:51:49.644Z,243.28
2023-05-06T04:52:49.588Z,243.32
2023-05-06T04:53:49.617Z,243.38
2023-05-06T04:54:49.651Z,241.48
2023-05-06T04:55:49.629Z,243.38
2023-05-06T04:56:49.653Z,239.94
2023-05-06T04:57:49.664Z,240.95
2023-05-06T04:58:49.688Z,242.91
2023-05-06T04:59:49.696Z,241.56
2023-05-06T05:00:49.703Z,240.90
2023-05-06T05:01:49.748Z,239.88
2023-05-06T05:02:49.830Z,241.95
2023-05-06T05:03:49.816Z,241.35
2023-05-06T05:04:49.803Z,241.28
2023-05-06T05:05:49.922Z,243.20
2023-05-06T05:06:49.937Z,241.24
2023-05-06T05:07:50.053Z,241.31
2023-05-06T05:08:49.985Z,241.65
2023-05-06T05:09:49.962Z,241.89
2023-05-06T05:10:49.990Z,242.42
2023-05-06T05:11:49.992Z,241.79
2023-05-06T05:12:50.084Z,240.61
2023-05-06T05:13:50.050Z,240.56
2023-05-06T05:14:50.059Z,242.96
2023-05-06T05:15:50.072Z,243.07
2023-05-06T05:16:50.133Z,243.23
2023-05-06T05:17:50.154Z,242.07
2023-05-06T05:18:50.133Z,242.36
2023-05-06T05:19:50.142Z,242.05
2023-05-06T05:20:50.177Z,240.75
2023-05-06T05:21:50.261Z,240.78
2023-05-06T05:22:50.186Z,240.87
2023-05-06T05:23:50.228Z,241.00
2023-05-06T05:24:50.234Z,241.37
2023-05-06T05:25:50.234Z,241.43
2023-05-06T05:26:50.263Z,241.96
2023-05-06T05:27:50.252Z,242.38
2023-05-06T05:28:50.262Z,240.55
2023-05-06T05:29:50.286Z,241.55
2023-05-06T05:30:50.424Z,241.61
2023-05-06T05:31:50.334Z,240.81
2023-05-06T05:32:50.427Z,241.93
2023-05-06T05:33:50.446Z,242.67
2023-05-06T05:34:50.372Z,241.65
2023-05-06T05:35:50.408Z,241.87
2023-05-06T05:36:50.408Z,241.70
2023-05-06T05:37:50.488Z,241.88
2023-05-06T05:38:50.439Z,241.58
2023-05-06T05:39:50.457Z,240.95
2023-05-06T05:40:50.485Z,242.24
2023-05-06T05:41:50.532Z,239.61
2023-05-06T05:42:50.480Z,239.81
2023-05-06T05:43:50.514Z,238.49
2023-05-06T05:44:50.518Z,239.66
2023-05-06T05:45:50.535Z,238.89
2023-05-06T05:46:50.635Z,238.64
2023-05-06T05:47:50.761Z,240.29
2023-05-06T05:48:50.766Z,239.10
2023-05-06T05:49:50.837Z,239.06
2023-05-06T05:50:50.910Z,240.38
2023-05-06T05:51:50.960Z,238.41
2023-05-06T05:52:51.022Z,238.36
2023-05-06T05:53:51.358Z,238.52
2023-05-06T05:54:51.056Z,238.73
2023-05-06T05:55:51.075Z,239.41
2023-05-06T05:56:51.101Z,239.53
2023-05-06T05:57:51.087Z,242.24
2023-05-06T05:58:51.122Z,239.17
2023-05-06T05:59:51.125Z,239.04
2023-05-06T06:00:51.118Z,240.92
2023-05-06T06:01:51.130Z,240.03
2023-05-06T06:02:51.196Z,238.88
2023-05-06T06:03:51.282Z,240.04
2023-05-06T06:04:51.296Z,239.00
2023-05-06T06:05:51.253Z,238.19
2023-05-06T06:06:51.332Z,239.56
2023-05-06T06:07:51.395Z,239.76
2023-05-06T06:08:51.491Z,238.23
2023-05-06T06:09:51.596Z,238.85
2023-05-06T06:10:51.582Z,238.96
2023-05-06T06:11:51.671Z,237.79
2023-05-06T06:12:51.756Z,238.84
2023-05-06T06:13:51.805Z,238.04
2023-05-06T06:14:51.869Z,236.81
2023-05-06T06:15:51.954Z,236.73
2023-05-06T06:16:51.995Z,237.00
2023-05-06T06:17:52.127Z,236.61
2023-05-06T06:18:52.150Z,235.91
2023-05-06T06:19:52.201Z,237.11
2023-05-06T06:20:53.392Z,239.01
2023-05-06T06:21:52.322Z,237.54
2023-05-06T06:22:52.387Z,235.90
2023-05-06T06:23:52.451Z,237.92
2023-05-06T06:24:52.502Z,236.44
2023-05-06T06:25:52.655Z,236.17
2023-05-06T06:26:52.624Z,236.13
2023-05-06T06:27:52.694Z,236.56
2023-05-06T06:28:52.746Z,237.18
2023-05-06T06:29:52.821Z,238.38
2023-05-06T06:30:52.893Z,237.00
2023-05-06T06:31:52.979Z,235.09
2023-05-06T06:32:53.072Z,234.29
2023-05-06T06:33:53.061Z,235.82
2023-05-06T06:34:53.128Z,234.00
2023-05-06T06:35:53.202Z,234.80
2023-05-06T06:36:53.254Z,233.70
2023-05-06T06:37:53.326Z,231.70
2023-05-06T06:38:53.336Z,231.88
2023-05-06T06:39:53.375Z,232.30
2023-05-06T06:40:53.378Z,232.56
2023-05-06T06:41:53.525Z,234.25
2023-05-06T06:42:53.417Z,233.83
2023-05-06T06:43:53.444Z,233.44
2023-05-06T06:44:53.434Z,235.14
2023-05-06T06:45:53.507Z,233.44
2023-05-06T06:46:53.517Z,235.58
2023-05-06T06:47:53.539Z,231.49
2023-05-06T06:48:53.511Z,233.07
2023-05-06T06:49:53.509Z,234.07
2023-05-06T06:50:53.522Z,232.05
2023-05-06T06:51:53.576Z,232.28
2023-05-06T06:52:53.626Z,233.35
2023-05-06T06:53:53.699Z,231.46
2023-05-06T06:54:53.754Z,230.13
2023-05-06T06:55:53.806Z,231.11
2023-05-06T06:56:53.876Z,231.38
2023-05-06T06:57:54.009Z,229.79
2023-05-06T06:58:54.012Z,230.50
2023-05-06T06:59:54.073Z,230.90
2023-05-06T07:00:54.190Z,229.04
2023-05-06T07:01:54.210Z,230.85
2023-05-06T07:02:54.413Z,229.30
2023-05-06T07:03:54.355Z,231.72
2023-05-06T07:04:54.394Z,230.04
2023-05-06T07:05:54.458Z,230.92
2023-05-06T07:06:54.523Z,231.30
2023-05-06T07:07:54.606Z,232.85
2023-05-06T07:08:54.676Z,231.98
2023-05-06T07:09:54.749Z,231.79
2023-05-06T07:10:54.786Z,231.35
2023-05-06T07:11:54.864Z,230.89
2023-05-06T07:12:54.974Z,230.19
2023-05-06T07:13:55.056Z,230.39
2023-05-06T07:14:55.058Z,230.75
2023-05-06T07:15:55.104Z,231.47
2023-05-06T07:16:55.200Z,231.83
2023-05-06T07:17:55.261Z,231.26
2023-05-06T07:18:55.321Z,231.42
2023-05-06T07:19:55.274Z,231.50
2023-05-06T07:20:55.283Z,231.34
2023-05-06T07:21:55.306Z,231.68
2023-05-06T07:22:55.337Z,233.89
2023-05-06T07:23:55.345Z,232.63
2023-05-06T07:24:55.369Z,232.89
2023-05-06T07:25:55.386Z,234.72
2023-05-06T07:26:55.429Z,232.43
2023-05-06T07:27:55.482Z,233.00
2023-05-06T07:28:55.447Z,233.40
2023-05-06T07:29:55.559Z,232.93
2023-05-06T07:30:55.507Z,231.21
2023-05-06T07:31:55.477Z,231.33
2023-05-06T07:32:55.525Z,231.63
2023-05-06T07:33:55.508Z,231.68
2023-05-06T07:34:55.538Z,232.23
2023-05-06T07:35:55.534Z,233.59
2023-05-06T07:36:55.579Z,232.04
2023-05-06T07:37:55.566Z,232.17
2023-05-06T07:38:55.620Z,232.95
2023-05-06T07:39:55.620Z,231.66
2023-05-06T07:40:55.650Z,232.04
2023-05-06T07:41:55.643Z,232.11
2023-05-06T07:42:55.648Z,232.40
2023-05-06T07:43:55.658Z,232.14
2023-05-06T07:44:55.654Z,232.26
2023-05-06T07:45:55.970Z,232.21
2023-05-06T07:46:55.752Z,232.24
2023-05-06T07:47:55.733Z,231.93
2023-05-06T07:48:55.720Z,229.71
2023-05-06T07:49:55.719Z,229.15
2023-05-06T07:50:55.725Z,231.65
2023-05-06T07:51:55.748Z,229.29
2023-05-06T07:52:55.760Z,227.57
2023-05-06T07:53:55.792Z,225.50
2023-05-06T07:54:55.777Z,225.24
2023-05-06T07:55:55.781Z,225.99
2023-05-06T07:56:55.801Z,225.68
2023-05-06T07:57:55.805Z,225.72
2023-05-06T07:58:55.846Z,223.96
2023-05-06T07:59:55.902Z,225.20
2023-05-06T08:00:55.910Z,225.73
2023-05-06T08:01:56.025Z,225.82
2023-05-06T08:02:56.150Z,226.06
2023-05-06T08:03:56.062Z,225.74
2023-05-06T08:04:56.021Z,225.49
2023-05-06T08:05:56.023Z,226.02
2023-05-06T08:06:56.025Z,225.58
2023-05-06T08:07:56.030Z,226.01
2023-05-06T08:08:56.065Z,224.93
2023-05-06T08:09:56.076Z,225.35
2023-05-06T08:10:56.095Z,224.45
2023-05-06T08:11:56.125Z,225.58
2023-05-06T08:12:56.138Z,222.72
2023-05-06T08:13:56.150Z,220.76
2023-05-06T08:14:56.138Z,224.09
2023-05-06T08:15:56.190Z,222.85
2023-05-06T08:16:56.169Z,221.20
2023-05-06T08:17:57.590Z,222.59
2023-05-06T08:18:56.181Z,222.66
2023-05-06T08:19:56.193Z,222.84
2023-05-06T08:20:56.225Z,223.06
2023-05-06T08:21:56.229Z,222.88
2023-05-06T08:22:56.223Z,223.66
2023-05-06T08:23:56.263Z,225.20
2023-05-06T08:24:56.261Z,221.86
2023-05-06T08:25:56.334Z,220.52
2023-05-06T08:26:56.302Z,218.79
2023-05-06T08:27:56.300Z,216.36
2023-05-06T08:28:56.357Z,218.76
2023-05-06T08:29:56.338Z,217.33
2023-05-06T08:30:56.346Z,211.47
2023-05-06T08:31:56.466Z,201.63
2023-05-06T08:32:56.413Z,186.20
2023-05-06T08:33:56.439Z,177.13
2023-05-06T08:34:56.395Z,178.41
2023-05-06T08:35:56.414Z,178.40
2023-05-06T08:36:56.447Z,171.22
2023-05-06T08:37:56.440Z,161.01
2023-05-06T08:38:56.478Z,151.99
2023-05-06T08:39:58.104Z,155.62
2023-05-06T08:40:56.465Z,152.35
2023-05-06T08:41:56.534Z,154.60
2023-05-06T08:42:56.501Z,152.80
2023-05-06T08:43:56.538Z,142.69
2023-05-06T08:44:56.530Z,137.18
2023-05-06T08:45:56.590Z,141.46
2023-05-06T08:46:56.550Z,136.95
2023-05-06T08:47:56.633Z,134.68
2023-05-06T08:48:56.607Z,129.24
2023-05-06T08:49:56.649Z,120.77
2023-05-06T08:50:56.622Z,121.07
2023-05-06T08:51:56.631Z,121.53
2023-05-06T08:52:56.640Z,120.13
2023-05-06T08:53:56.706Z,120.10
2023-05-06T08:54:56.682Z,120.14
2023-05-06T08:55:56.723Z,119.41
2023-05-06T08:56:56.728Z,118.16
2023-05-06T08:57:56.746Z,114.78
2023-05-06T08:58:56.758Z,114.73
2023-05-06T08:59:56.765Z,111.95
2023-05-06T09:00:56.849Z,109.96
2023-05-06T09:01:56.890Z,105.87
2023-05-06T09:02:56.966Z,104.05
2023-05-06T09:03:56.885Z,100.25
2023-05-06T09:04:56.925Z,96.46
2023-05-06T09:05:57.000Z,90.33
2023-05-06T09:06:56.890Z,88.10
2023-05-06T09:07:56.937Z,86.36
2023-05-06T09:08:56.936Z,83.63
2023-05-06T09:09:56.959Z,80.34
2023-05-06T09:10:56.955Z,74.61
2023-05-06T09:11:56.951Z,67.96
2023-05-06T09:12:57.019Z,58.47
2023-05-06T09:13:57.020Z,57.20
2023-05-06T09:14:56.993Z,55.71
2023-05-06T09:15:57.018Z,49.46
2023-05-06T09:16:57.165Z,38.32
2023-05-06T09:17:57.079Z,38.17
2023-05-06T09:18:57.061Z,40.66
2023-05-06T09:19:57.137Z,30.76
2023-05-06T09:20:59.373Z,25.00
2023-05-06T09:21:57.161Z,25.43
2023-05-06T09:22:57.104Z,27.98
2023-05-06T09:23:57.111Z,25.91
2023-05-06T09:24:57.223Z,26.51
2023-05-06T09:25:57.146Z,25.24
2023-05-06T09:26:57.169Z,30.64
2023-05-06T09:27:57.185Z,30.28
2023-05-06T09:28:57.205Z,33.97
2023-05-06T09:29:57.220Z,35.55
2023-05-06T09:30:57.294Z,42.06
2023-05-06T09:31:57.255Z,42.66
2023-05-06T09:32:57.343Z,44.17
2023-05-06T09:33:57.294Z,45.52
2023-05-06T09:34:57.377Z,48.26
2023-05-06T09:35:57.358Z,52.52
2023-05-06T09:36:57.350Z,54.63
2023-05-06T09:37:57.393Z,57.97
2023-05-06T09:38:57.392Z,61.88
2023-05-06T09:39:57.406Z,65.34
2023-05-06T09:40:57.433Z,68.38
2023-05-06T09:41:57.430Z,70.82
2023-05-06T09:42:57.438Z,71.14
2023-05-06T09:43:57.461Z,72.53
2023-05-06T09:44:59.758Z,75.81
2023-05-06T09:45:57.509Z,71.45
2023-05-06T09:46:57.482Z,74.03
2023-05-06T09:47:57.534Z,79.05
2023-05-06T09:48:57.528Z,88.85
2023-05-06T09:49:57.515Z,101.28
2023-05-06T09:50:59.995Z,104.20
2023-05-06T09:51:57.558Z,104.30
2023-05-06T09:52:57.555Z,105.35
2023-05-06T09:53:57.656Z,107.82
2023-05-06T09:54:57.592Z,111.22
2023-05-06T09:55:57.606Z,119.59
2023-05-06T09:56:59.278Z,121.21
2023-05-06T09:57:57.607Z,121.40
2023-05-06T09:58:57.623Z,122.28
2023-05-06T09:59:57.629Z,124.77
2023-05-06T10:00:57.641Z,129.65
2023-05-06T10:01:57.670Z,135.61
2023-05-06T10:02:58.006Z,137.02
2023-05-06T10:03:57.806Z,141.70
2023-05-06T10:04:58.060Z,141.97
2023-05-06T10:05:57.723Z,143.72
2023-05-06T10:06:57.757Z,144.59
2023-05-06T10:07:57.756Z,145.59
2023-05-06T10:08:57.774Z,148.11
2023-05-06T10:09:57.783Z,149.29
2023-05-06T10:10:57.805Z,150.36
2023-05-06T10:11:57.798Z,154.47
2023-05-06T10:12:57.861Z,154.89
2023-05-06T10:13:57.827Z,155.63
2023-05-06T10:14:57.832Z,156.29
2023-05-06T10:15:57.891Z,160.10
2023-05-06T10:16:57.855Z,160.88
2023-05-06T10:17:57.919Z,164.33
2023-05-06T10:18:57.901Z,163.53
2023-05-06T10:19:57.902Z,165.54
2023-05-06T10:20:57.908Z,166.43
2023-05-06T10:21:57.954Z,167.68
2023-05-06T10:22:57.924Z,167.10
2023-05-06T10:23:57.931Z,168.32
2023-05-06T10:24:57.970Z,169.60
2023-05-06T10:25:57.960Z,168.30
2023-05-06T10:26:57.960Z,172.83
2023-05-06T10:27:57.962Z,171.72
2023-05-06T10:28:57.967Z,171.09
2023-05-06T10:29:57.985Z,173.16
2023-05-06T10:30:58.038Z,174.16
2023-05-06T10:31:58.125Z,176.04
2023-05-06T10:32:58.024Z,175.12
2023-05-06T10:33:58.047Z,174.49
2023-05-06T10:34:58.010Z,176.91
2023-05-06T10:35:58.041Z,180.18
2023-05-06T10:36:58.062Z,178.83
2023-05-06T10:37:58.041Z,178.90
2023-05-06T10:38:58.053Z,178.32
2023-05-06T10:39:58.071Z,179.02
2023-05-06T10:40:58.084Z,178.34
2023-05-06T10:41:58.088Z,179.76
2023-05-06T10:42:58.114Z,182.08
2023-05-06T10:43:58.122Z,181.56
2023-05-06T10:44:58.136Z,182.94
2023-05-06T10:45:58.174Z,182.36
2023-05-06T10:46:58.157Z,183.64
2023-05-06T10:47:58.217Z,185.33
2023-05-06T10:48:58.250Z,185.24
2023-05-06T10:49:58.195Z,185.25
2023-05-06T10:50:58.199Z,187.97
2023-05-06T10:51:58.229Z,187.66
2023-05-06T10:52:58.216Z,187.76
2023-05-06T10:53:58.256Z,187.89
2023-05-06T10:54:58.226Z,188.53
2023-05-06T10:55:58.239Z,190.36
2023-05-06T10:56:58.240Z,190.95
2023-05-06T10:57:58.347Z,189.98
2023-05-06T10:58:58.322Z,190.38
2023-05-06T10:59:58.282Z,188.65
2023-05-06T11:00:58.368Z,191.55
2023-05-06T11:01:58.341Z,191.81
2023-05-06T11:02:58.391Z,192.61
2023-05-06T11:03:58.334Z,193.19
2023-05-06T11:04:58.340Z,194.34
2023-05-06T11:05:58.377Z,190.82
2023-05-06T11:06:58.397Z,196.79
2023-05-06T11:07:58.379Z,194.10
2023-05-06T11:08:58.395Z,194.00
2023-05-06T11:09:58.405Z,193.55
2023-05-06T11:10:58.398Z,194.00
2023-05-06T11:11:58.408Z,193.65
2023-05-06T11:12:58.494Z,193.20
2023-05-06T11:13:58.540Z,192.14
2023-05-06T11:14:58.495Z,196.48
2023-05-06T11:15:58.465Z,199.90
2023-05-06T11:16:58.496Z,198.76
2023-05-06T11:17:58.489Z,192.27
2023-05-06T11:18:58.501Z,196.76
2023-05-06T11:19:58.506Z,200.46
2023-05-06T11:20:58.550Z,200.85
2023-05-06T11:21:58.624Z,200.60
2023-05-06T11:22:58.671Z,201.08
2023-05-06T11:23:58.708Z,199.24
2023-05-06T11:24:58.729Z,202.00
2023-05-06T11:25:58.781Z,204.20
2023-05-06T11:26:58.808Z,199.31
2023-05-06T11:27:58.856Z,200.96
2023-05-06T11:28:58.912Z,201.37
2023-05-06T11:29:59.043Z,202.97
2023-05-06T11:30:59.099Z,202.54
2023-05-06T11:31:59.132Z,204.59
2023-05-06T11:32:59.215Z,204.14
2023-05-06T11:33:59.276Z,205.34
2023-05-06T11:34:59.365Z,202.67
2023-05-06T11:35:59.439Z,203.57
2023-05-06T11:36:59.507Z,206.38
2023-05-06T11:37:59.617Z,204.45
2023-05-06T11:38:59.589Z,205.14
2023-05-06T11:39:59.662Z,203.13
2023-05-06T11:40:59.745Z,205.71
2023-05-06T11:41:59.833Z,204.69
2023-05-06T11:42:59.899Z,204.35
2023-05-06T11:43:59.958Z,204.80
2023-05-06T11:45:00.061Z,203.72
2023-05-06T11:46:00.261Z,206.23
2023-05-06T11:47:00.163Z,204.48
2023-05-06T11:48:00.270Z,204.92
2023-05-06T11:49:00.348Z,206.65
2023-05-06T11:50:00.417Z,204.06
2023-05-06T11:51:00.485Z,205.23
2023-05-06T11:52:00.608Z,201.60
2023-05-06T11:53:00.636Z,201.10
2023-05-06T11:54:00.707Z,202.31
2023-05-06T11:55:00.770Z,200.07
2023-05-06T11:56:00.855Z,204.88
2023-05-06T11:57:00.937Z,204.85
2023-05-06T11:58:01.000Z,204.77
2023-05-06T11:59:01.096Z,203.58
2023-05-06T12:00:01.179Z,200.37
2023-05-06T12:01:01.252Z,201.75
2023-05-06T12:02:01.390Z,202.37
2023-05-06T12:03:01.515Z,202.93
2023-05-06T12:04:01.575Z,202.46
2023-05-06T12:05:01.660Z,201.57
2023-05-06T12:06:01.578Z,201.68
2023-05-06T12:07:01.601Z,201.75
2023-05-06T12:08:01.627Z,201.61
2023-05-06T12:09:01.642Z,201.79
2023-05-06T12:10:01.655Z,202.44
2023-05-06T12:11:01.674Z,202.22
2023-05-06T12:12:01.677Z,198.74
2023-05-06T12:13:01.718Z,201.02
2023-05-06T12:14:01.694Z,197.39
2023-05-06T12:15:01.706Z,199.69
2023-05-06T12:16:01.777Z,189.34
2023-05-06T12:17:01.845Z,190.87
2023-05-06T12:18:01.979Z,192.07
2023-05-06T12:19:01.961Z,187.58
2023-05-06T12:20:02.007Z,181.57
2023-05-06T12:21:02.091Z,181.46
2023-05-06T12:22:02.165Z,175.93
2023-05-06T12:23:02.236Z,176.05
2023-05-06T12:24:02.299Z,172.36
2023-05-06T12:25:02.357Z,172.67
2023-05-06T12:26:02.438Z,171.62
2023-05-06T12:27:02.492Z,167.54
2023-05-06T12:28:02.548Z,166.33
2023-05-06T12:29:02.633Z,165.10
2023-05-06T12:30:02.719Z,161.44